Enter the Airport ICAO Code

Search by Airport or City

Current Weather

GCLA | La Palma Airport

La Palma, Canary Islands, Spain

Last Update 34 Minutes Ago

Clear Sky

Temperature of 23 ºC

Moderate Winds from North

Temperature

23 ºC

Dew Point Temperature

20 ºC

Relative Humidity

83.32 %

Wind Direction

North (350º, Without Significant Variations)

Wind Velocity

19 km/h (10 kt)

Gusts

None

Visibility

No Significant Reductions

Sea Level Pressure

1022 hPa (Hectopascals)

Layers of Clouds

None

METAR GCLA 202230Z AUTO 35010KT CAVOK 23/20 Q1022

Weather Forecast

GCLA | La Palma Airport

La Palma, Canary Islands, Spain

Forecast valid for the next 22 Hours

From now on it is expected:

Sky with Few Clouds

Light to Moderate Winds from North

Maximum Temperature

28 ºC in 15 Hours

Minimum Temperature

22 ºC in 7 Hours

TAF GCLA 202000Z 2021/2121 34008KT 9999 FEW020 TX28/2114Z TN22/2106Z